createdAt,value
2019-02-23T00:01:34.661Z,97439.74
2019-02-23T00:04:23.724Z,97433.19
2019-02-23T00:07:12.966Z,97445.20
2019-02-23T00:10:01.591Z,97445.13
2019-02-23T00:12:49.872Z,97447.19
2019-02-23T00:15:38.620Z,97443.10
2019-02-23T00:18:27.475Z,97443.92
2019-02-23T00:21:16.318Z,97448.41
2019-02-23T00:24:08.425Z,97454.87
2019-02-23T00:26:57.187Z,97453.89
2019-02-23T00:29:46.092Z,97453.06
2019-02-23T00:32:34.636Z,97453.52
2019-02-23T00:35:23.742Z,97444.86
2019-02-23T00:38:12.570Z,97443.86
2019-02-23T00:41:03.340Z,97445.22
2019-02-23T00:43:52.373Z,97444.52
2019-02-23T00:46:41.097Z,97442.95
2019-02-23T00:49:36.358Z,97440.84
2019-02-23T00:52:20.180Z,97446.82
2019-02-23T00:55:09.261Z,97445.39
2019-02-23T00:57:58.091Z,97452.65
2019-02-23T01:00:46.681Z,97459.94
2019-02-23T01:03:35.834Z,97453.48
2019-02-23T01:06:24.081Z,97459.56
2019-02-23T01:09:12.788Z,97459.02
2019-02-23T01:12:01.431Z,97462.43
2019-02-23T01:14:50.344Z,97458.76
2019-02-23T01:17:39.200Z,97464.23
2019-02-23T01:20:28.268Z,97461.85
2019-02-23T01:23:16.631Z,97472.39
2019-02-23T01:26:25.275Z,97476.48
2019-02-23T01:29:13.727Z,97481.86
2019-02-23T01:32:02.744Z,97477.92
2019-02-23T01:34:51.927Z,97476.70
2019-02-23T01:37:40.768Z,97478.84
2019-02-23T01:40:29.304Z,97476.27
2019-02-23T01:43:17.626Z,97487.60
2019-02-23T01:46:07.533Z,97489.88
2019-02-23T01:48:56.353Z,97497.00
2019-02-23T01:51:45.867Z,97493.11
2019-02-23T01:54:34.530Z,97500.30
2019-02-23T01:57:22.892Z,97504.16
2019-02-23T02:00:13.020Z,97505.55
2019-02-23T02:03:01.334Z,97501.98
2019-02-23T02:05:50.779Z,97500.66
2019-02-23T02:08:40.401Z,97498.84
2019-02-23T02:11:29.012Z,97500.48
2019-02-23T02:14:18.138Z,97500.48
2019-02-23T02:17:06.647Z,97500.38
2019-02-23T02:19:55.267Z,97502.50
2019-02-23T02:22:44.399Z,97517.81
2019-02-23T02:25:33.465Z,97515.51
2019-02-23T02:28:22.164Z,97514.48
2019-02-23T02:31:10.612Z,97510.41
2019-02-23T02:34:08.018Z,97510.04
2019-02-23T02:36:58.147Z,97506.94
2019-02-23T02:39:46.968Z,97512.45
2019-02-23T02:42:35.362Z,97501.72
2019-02-23T02:45:24.559Z,97501.05
2019-02-23T02:48:13.252Z,97503.89
2019-02-23T02:51:02.022Z,97506.83
2019-02-23T02:53:50.990Z,97504.61
2019-02-23T02:56:39.630Z,97501.20
2019-02-23T02:59:28.043Z,97502.80
2019-02-23T03:02:16.548Z,97502.86
2019-02-23T03:05:05.620Z,97500.58
2019-02-23T03:07:54.644Z,97500.63
2019-02-23T03:10:43.582Z,97498.93
2019-02-23T03:13:32.263Z,97493.67
2019-02-23T03:16:21.153Z,97490.75
2019-02-23T03:19:09.814Z,97498.77
2019-02-23T03:21:58.756Z,97500.58
2019-02-23T03:24:48.121Z,97495.66
2019-02-23T03:27:36.898Z,97498.91
2019-02-23T03:30:25.395Z,97505.80
2019-02-23T03:33:14.184Z,97496.69
2019-02-23T03:36:02.851Z,97504.16
2019-02-23T03:38:51.908Z,97502.88
2019-02-23T03:41:40.218Z,97514.24
2019-02-23T03:44:29.497Z,97515.67
2019-02-23T03:47:18.486Z,97516.13
2019-02-23T03:50:08.108Z,97524.43
2019-02-23T03:52:57.133Z,97527.85
2019-02-23T03:55:46.314Z,97529.21
2019-02-23T03:58:34.762Z,97535.53
2019-02-23T04:01:23.253Z,97536.93
2019-02-23T04:04:11.738Z,97535.85
2019-02-23T04:07:00.450Z,97530.59
2019-02-23T04:09:49.824Z,97527.92
2019-02-23T04:12:38.280Z,97529.88
2019-02-23T04:15:27.383Z,97529.93
2019-02-23T04:18:16.454Z,97524.73
2019-02-23T04:21:05.057Z,97521.51
2019-02-23T04:23:55.260Z,97515.19
2019-02-23T04:26:44.422Z,97513.05
2019-02-23T04:29:33.220Z,97498.67
2019-02-23T04:32:21.837Z,97492.24
2019-02-23T04:35:10.518Z,97493.58
2019-02-23T04:37:59.391Z,97495.41
2019-02-23T04:40:48.575Z,97489.95
2019-02-23T04:43:37.505Z,97503.02
2019-02-23T04:46:26.174Z,97492.14
2019-02-23T04:49:14.544Z,97494.59
2019-02-23T04:52:03.552Z,97488.45
2019-02-23T04:54:52.606Z,97479.05
2019-02-23T04:57:41.948Z,97484.91
2019-02-23T05:00:30.564Z,97477.54
2019-02-23T05:03:19.814Z,97475.32
2019-02-23T05:06:08.693Z,97474.66
2019-02-23T05:08:57.577Z,97481.16
2019-02-23T05:11:46.184Z,97480.66
2019-02-23T05:14:35.173Z,97481.48
2019-02-23T05:17:24.354Z,97493.00
2019-02-23T05:20:12.880Z,97487.54
2019-02-23T05:23:01.807Z,97492.52
2019-02-23T05:25:50.481Z,97495.59
2019-02-23T05:28:38.786Z,97494.44
2019-02-23T05:31:27.859Z,97501.55
2019-02-23T05:34:16.848Z,97513.31
2019-02-23T05:37:06.949Z,97519.59
2019-02-23T05:39:55.467Z,97512.98
2019-02-23T05:42:44.244Z,97517.86
2019-02-23T05:45:33.425Z,97503.39
2019-02-23T05:48:21.843Z,97507.89
2019-02-23T05:51:10.988Z,97497.97
2019-02-23T05:53:59.472Z,97500.13
2019-02-23T05:56:48.159Z,97498.28
2019-02-23T05:59:36.227Z,97501.06
2019-02-23T06:02:24.715Z,97509.70
2019-02-23T06:05:13.577Z,97507.70
2019-02-23T06:08:02.370Z,97502.91
2019-02-23T06:10:51.109Z,97503.34
2019-02-23T06:13:39.868Z,97513.78
2019-02-23T06:16:28.542Z,97510.52
2019-02-23T06:19:17.354Z,97508.03
2019-02-23T06:22:06.673Z,97509.50
2019-02-23T06:24:55.459Z,97503.33
2019-02-23T06:27:44.063Z,97511.13
2019-02-23T06:30:32.943Z,97527.30
2019-02-23T06:33:21.674Z,97532.64
2019-02-23T06:36:10.851Z,97535.59
2019-02-23T06:38:59.472Z,97536.88
2019-02-23T06:41:48.321Z,97539.57
2019-02-23T06:44:37.416Z,97531.56
2019-02-23T06:47:26.538Z,97524.80
2019-02-23T06:50:14.996Z,97520.75
2019-02-23T06:53:03.599Z,97521.73
2019-02-23T06:55:51.931Z,97526.99
2019-02-23T06:58:40.005Z,97529.13
2019-02-23T07:01:28.554Z,97537.46
2019-02-23T07:04:17.477Z,97542.69
2019-02-23T07:07:06.339Z,97536.52
2019-02-23T07:09:54.895Z,97539.64
2019-02-23T07:12:43.947Z,97537.81
2019-02-23T07:15:32.631Z,97547.10
2019-02-23T07:18:21.417Z,97549.31
2019-02-23T07:21:10.613Z,97546.95
2019-02-23T07:23:59.344Z,97542.86
2019-02-23T07:26:47.704Z,97541.00
2019-02-23T07:29:36.610Z,97533.30
2019-02-23T07:32:25.655Z,97524.63
2019-02-23T07:35:15.132Z,97517.78
2019-02-23T07:38:03.288Z,97517.67
2019-02-23T07:40:52.133Z,97504.88
2019-02-23T07:43:41.115Z,97496.70
2019-02-23T07:46:29.560Z,97488.80
2019-02-23T07:49:18.030Z,97491.28
2019-02-23T07:52:06.827Z,97493.47
2019-02-23T07:54:55.519Z,97497.71
2019-02-23T07:57:44.043Z,97502.47
2019-02-23T08:00:32.679Z,97514.23
2019-02-23T08:03:22.478Z,97513.80
2019-02-23T08:06:11.603Z,97522.17
2019-02-23T08:09:01.039Z,97535.26
2019-02-23T08:11:49.606Z,97533.16
2019-02-23T08:14:41.871Z,97544.73
2019-02-23T08:17:31.916Z,97543.49
2019-02-23T08:20:21.264Z,97551.28
2019-02-23T08:23:11.077Z,97537.48
2019-02-23T08:26:02.154Z,97526.66
2019-02-23T08:28:51.092Z,97518.10
2019-02-23T08:31:39.873Z,97518.53
2019-02-23T08:34:29.655Z,97526.72
2019-02-23T08:37:19.981Z,97528.45
2019-02-23T08:40:12.159Z,97539.50
2019-02-23T08:43:00.542Z,97539.48
2019-02-23T08:45:49.758Z,97542.20
2019-02-23T08:48:38.186Z,97549.25
2019-02-23T08:51:27.929Z,97552.44
2019-02-23T08:54:16.742Z,97545.03
2019-02-23T08:57:05.609Z,97538.98
2019-02-23T08:59:54.826Z,97530.30
2019-02-23T09:02:43.965Z,97525.25
2019-02-23T09:05:33.371Z,97519.48
2019-02-23T09:08:22.757Z,97525.52
2019-02-23T09:11:11.743Z,97530.98
2019-02-23T09:14:00.565Z,97539.96
2019-02-23T09:16:49.493Z,97550.18
2019-02-23T09:19:38.523Z,97546.98
2019-02-23T09:22:27.251Z,97543.35
2019-02-23T09:25:15.862Z,97526.77
2019-02-23T09:28:05.121Z,97525.97
2019-02-23T09:30:53.992Z,97539.72
2019-02-23T09:33:43.367Z,97552.50
2019-02-23T09:36:31.714Z,97558.88
2019-02-23T09:39:21.020Z,97566.25
2019-02-23T09:42:10.244Z,97559.66
2019-02-23T09:44:59.672Z,97560.95
2019-02-23T09:47:48.662Z,97562.68
2019-02-23T09:50:37.534Z,97573.84
2019-02-23T09:53:26.607Z,97579.62
2019-02-23T09:56:15.336Z,97585.17
2019-02-23T09:59:04.435Z,97585.60
2019-02-23T10:01:54.754Z,97575.53
2019-02-23T10:04:44.130Z,97574.16
2019-02-23T10:07:36.108Z,97569.08
2019-02-23T10:10:30.101Z,97575.23
2019-02-23T10:13:21.494Z,97573.84
2019-02-23T10:16:10.713Z,97565.69
2019-02-23T10:18:59.708Z,97563.94
2019-02-23T10:21:52.018Z,97544.41
2019-02-23T10:24:43.508Z,97550.44
2019-02-23T10:27:32.073Z,97559.03
2019-02-23T10:30:20.678Z,97554.50
2019-02-23T10:33:09.185Z,97552.28
2019-02-23T10:35:58.524Z,97544.48
2019-02-23T10:38:47.972Z,97551.98
2019-02-23T10:41:36.855Z,97557.23
2019-02-23T10:44:28.010Z,97563.53
2019-02-23T10:47:16.611Z,97558.38
2019-02-23T10:50:06.456Z,97557.48
2019-02-23T10:52:55.011Z,97570.00
2019-02-23T10:55:44.441Z,97572.87
2019-02-23T10:58:33.597Z,97569.73
2019-02-23T11:01:22.624Z,97548.73
2019-02-23T11:04:11.704Z,97543.58
2019-02-23T11:07:00.235Z,97542.86
2019-02-23T11:09:49.523Z,97548.98
2019-02-23T11:12:38.425Z,97545.03
2019-02-23T11:15:27.594Z,97549.08
2019-02-23T11:18:17.901Z,97541.14
2019-02-23T11:21:07.793Z,97532.80
2019-02-23T11:23:56.648Z,97526.43
2019-02-23T11:26:45.662Z,97518.00
2019-02-23T11:29:35.067Z,97509.37
2019-02-23T11:32:23.942Z,97508.07
2019-02-23T11:35:13.391Z,97502.17
2019-02-23T11:38:02.577Z,97494.75
2019-02-23T11:40:51.860Z,97476.66
2019-02-23T11:43:41.202Z,97472.16
2019-02-23T11:46:29.950Z,97470.63
2019-02-23T11:49:18.682Z,97452.22
2019-02-23T11:52:07.437Z,97456.56
2019-02-23T11:54:56.736Z,97451.89
2019-02-23T11:57:46.004Z,97456.80
2019-02-23T12:00:38.356Z,97456.58
2019-02-23T12:03:31.427Z,97458.66
2019-02-23T12:06:20.930Z,97461.70
2019-02-23T12:09:13.319Z,97461.88
2019-02-23T12:12:02.582Z,97464.89
2019-02-23T12:14:51.787Z,97460.78
2019-02-23T12:17:40.745Z,97457.99
2019-02-23T12:20:29.975Z,97456.45
2019-02-23T12:23:18.654Z,97460.52
2019-02-23T12:26:07.769Z,97453.58
2019-02-23T12:28:56.526Z,97463.93
2019-02-23T12:31:44.667Z,97465.62
2019-02-23T12:34:33.309Z,97459.66
2019-02-23T12:37:22.241Z,97461.13
2019-02-23T12:40:11.681Z,97454.81
2019-02-23T12:43:00.094Z,97442.87
2019-02-23T12:45:48.781Z,97439.78
2019-02-23T12:48:37.701Z,97429.82
2019-02-23T12:51:26.149Z,97436.77
2019-02-23T12:54:16.947Z,97423.83
2019-02-23T12:57:06.616Z,97414.77
2019-02-23T12:59:55.930Z,97413.07
2019-02-23T13:02:44.339Z,97410.53
2019-02-23T13:05:33.153Z,97403.98
2019-02-23T13:08:21.462Z,97400.56
2019-02-23T13:11:11.242Z,97403.63
2019-02-23T13:14:28.521Z,97396.25
2019-02-23T13:17:22.952Z,97396.30
2019-02-23T13:21:14.296Z,97403.70
2019-02-23T13:24:59.208Z,97400.20
2019-02-23T13:28:09.516Z,97394.53
2019-02-23T13:34:08.693Z,97400.18
2019-02-23T13:37:28.685Z,97399.31
2019-02-23T13:41:10.436Z,97391.45
2019-02-23T13:44:36.202Z,97397.92
2019-02-23T13:48:06.947Z,97390.39
2019-02-23T13:51:12.640Z,97391.72
2019-02-23T13:54:52.759Z,97389.93
2019-02-23T13:58:36.589Z,97391.75
2019-02-23T14:02:17.833Z,97382.98
2019-02-23T14:05:36.286Z,97375.54
2019-02-23T14:09:06.321Z,97368.23
2019-02-23T14:12:05.505Z,97358.69
2019-02-23T14:15:31.184Z,97348.29
2019-02-23T14:18:52.005Z,97346.21
2019-02-23T14:22:24.523Z,97359.25
2019-02-23T14:26:02.325Z,97369.20
2019-02-23T14:29:26.284Z,97359.53
2019-02-23T14:32:37.867Z,97360.12
2019-02-23T14:36:01.465Z,97347.80
2019-02-23T14:39:22.582Z,97359.73
2019-02-23T14:42:27.744Z,97358.90
2019-02-23T14:46:05.525Z,97353.19
2019-02-23T14:49:16.502Z,97355.12
2019-02-23T14:52:55.322Z,97348.48
2019-02-23T14:56:08.743Z,97356.99
2019-02-23T14:59:27.035Z,97359.59
2019-02-23T15:02:51.570Z,97360.36
2019-02-23T15:06:16.697Z,97358.72
2019-02-23T15:09:55.912Z,97358.13
2019-02-23T15:13:17.541Z,97352.94
2019-02-23T15:17:11.890Z,97356.36
2019-02-23T15:20:33.087Z,97351.08
2019-02-23T15:23:50.778Z,97348.56
2019-02-23T15:27:32.864Z,97351.09
2019-02-23T15:31:11.518Z,97353.28
2019-02-23T15:34:44.257Z,97358.50
2019-02-23T15:38:03.902Z,97359.77
2019-02-23T15:41:36.573Z,97351.42
2019-02-23T15:45:04.310Z,97359.81
2019-02-23T15:48:15.290Z,97355.02
2019-02-23T15:51:04.634Z,97354.72
2019-02-23T15:53:53.731Z,97343.84
2019-02-23T15:56:42.140Z,97344.25
2019-02-23T15:59:30.508Z,97335.09
2019-02-23T16:02:19.307Z,97338.38
2019-02-23T16:05:08.069Z,97339.69
2019-02-23T16:07:57.204Z,97343.56
2019-02-23T16:10:46.413Z,97345.47
2019-02-23T16:13:35.748Z,97344.70
2019-02-23T16:16:24.294Z,97340.52
2019-02-23T16:19:13.391Z,97338.72
2019-02-23T16:22:02.853Z,97335.69
2019-02-23T16:24:51.581Z,97341.05
2019-02-23T16:27:40.549Z,97344.39
2019-02-23T16:30:29.648Z,97348.06
2019-02-23T16:33:18.549Z,97354.59
2019-02-23T16:36:07.562Z,97351.55
2019-02-23T16:38:56.758Z,97360.05
2019-02-23T16:41:45.429Z,97357.69
2019-02-23T16:44:34.086Z,97367.47
2019-02-23T16:47:23.500Z,97375.27
2019-02-23T16:50:12.603Z,97379.42
2019-02-23T16:53:01.824Z,97388.02
2019-02-23T16:55:51.446Z,97391.91
2019-02-23T16:58:39.766Z,97400.39
2019-02-23T17:01:29.116Z,97395.81
2019-02-23T17:04:17.894Z,97405.94
2019-02-23T17:07:07.118Z,97409.60
2019-02-23T17:09:56.636Z,97411.92
2019-02-23T17:12:45.188Z,97419.13
2019-02-23T17:15:34.101Z,97410.94
2019-02-23T17:18:22.643Z,97419.52
2019-02-23T17:21:11.479Z,97414.22
2019-02-23T17:24:00.759Z,97422.78
2019-02-23T17:26:49.153Z,97425.16
2019-02-23T17:29:38.248Z,97429.21
2019-02-23T17:32:27.439Z,97436.51
2019-02-23T17:35:16.275Z,97441.27
2019-02-23T17:38:15.652Z,97444.70
2019-02-23T17:40:55.832Z,97444.08
2019-02-23T17:43:44.553Z,97443.01
2019-02-23T17:46:33.156Z,97440.14
2019-02-23T17:49:21.140Z,97445.22
2019-02-23T17:52:09.180Z,97444.09
2019-02-23T17:54:58.483Z,97447.11
2019-02-23T17:57:47.197Z,97448.80
2019-02-23T18:00:36.412Z,97450.64
2019-02-23T18:03:25.121Z,97453.63
2019-02-23T18:06:13.754Z,97456.60
2019-02-23T18:09:02.984Z,97459.18
2019-02-23T18:11:52.135Z,97464.25
2019-02-23T18:14:40.514Z,97460.05
2019-02-23T18:17:29.300Z,97466.78
2019-02-23T18:20:18.108Z,97469.08
2019-02-23T18:23:06.706Z,97468.44
2019-02-23T18:25:55.103Z,97474.77
2019-02-23T18:28:43.520Z,97475.97
2019-02-23T18:31:32.184Z,97478.02
2019-02-23T18:34:20.743Z,97480.23
2019-02-23T18:37:09.258Z,97476.89
2019-02-23T18:39:58.053Z,97476.00
2019-02-23T18:42:47.195Z,97472.03
2019-02-23T18:45:36.294Z,97465.50
2019-02-23T18:48:25.445Z,97469.23
2019-02-23T18:51:14.466Z,97473.99
2019-02-23T18:54:02.637Z,97472.14
2019-02-23T18:56:51.219Z,97471.98
2019-02-23T18:59:39.942Z,97472.64
2019-02-23T19:02:28.404Z,97474.26
2019-02-23T19:05:17.171Z,97475.56
2019-02-23T19:08:05.659Z,97477.14
2019-02-23T19:10:55.787Z,97477.14
2019-02-23T19:13:44.530Z,97470.66
2019-02-23T19:16:33.103Z,97466.86
2019-02-23T19:19:21.555Z,97463.10
2019-02-23T19:22:10.596Z,97468.44
2019-02-23T19:25:00.324Z,97459.95
2019-02-23T19:27:49.525Z,97467.51
2019-02-23T19:30:37.806Z,97461.86
2019-02-23T19:33:26.556Z,97462.82
2019-02-23T19:36:15.202Z,97461.29
2019-02-23T19:39:07.614Z,97464.37
2019-02-23T19:41:56.229Z,97460.22
2019-02-23T19:44:46.239Z,97460.71
2019-02-23T19:47:35.741Z,97453.77
2019-02-23T19:50:28.071Z,97455.53
2019-02-23T19:53:16.976Z,97454.75
2019-02-23T19:56:06.086Z,97455.51
2019-02-23T19:58:54.862Z,97458.55
2019-02-23T20:01:43.855Z,97459.80
2019-02-23T20:04:32.592Z,97459.80
2019-02-23T20:07:21.918Z,97463.47
2019-02-23T20:10:10.926Z,97471.77
2019-02-23T20:12:59.766Z,97464.55
2019-02-23T20:15:49.159Z,97472.24
2019-02-23T20:18:37.978Z,97471.93
2019-02-23T20:21:26.924Z,97464.92
2019-02-23T20:24:15.538Z,97470.08
2019-02-23T20:27:04.267Z,97475.80
2019-02-23T20:29:53.389Z,97480.02
2019-02-23T20:32:41.830Z,97474.30
2019-02-23T20:35:32.117Z,97480.50
2019-02-23T20:38:20.881Z,97480.10
2019-02-23T20:41:09.582Z,97478.63
2019-02-23T20:43:58.759Z,97483.15
2019-02-23T20:46:47.832Z,97476.72
2019-02-23T20:49:36.268Z,97482.48
2019-02-23T20:52:25.444Z,97479.41
2019-02-23T20:55:14.375Z,97467.66
2019-02-23T20:58:03.491Z,97459.36
2019-02-23T21:00:52.100Z,97452.93
2019-02-23T21:03:41.042Z,97457.80
2019-02-23T21:06:29.561Z,97452.77
2019-02-23T21:09:18.698Z,97453.28
2019-02-23T21:12:08.862Z,97457.09
2019-02-23T21:14:57.747Z,97446.39
2019-02-23T21:17:46.889Z,97446.82
2019-02-23T21:20:35.813Z,97452.00
2019-02-23T21:23:24.493Z,97452.08
2019-02-23T21:26:13.640Z,97453.48
2019-02-23T21:29:02.304Z,97457.61
2019-02-23T21:31:50.713Z,97452.70
2019-02-23T21:34:39.848Z,97460.53
2019-02-23T21:37:28.995Z,97453.71
2019-02-23T21:40:17.455Z,97452.42
2019-02-23T21:43:07.279Z,97450.13
2019-02-23T21:45:56.686Z,97448.73
2019-02-23T21:48:45.092Z,97454.69
2019-02-23T21:51:33.387Z,97453.40
2019-02-23T21:54:22.178Z,97458.34
2019-02-23T21:57:10.818Z,97454.60
2019-02-23T21:59:59.813Z,97450.75
2019-02-23T22:02:48.141Z,97448.86
2019-02-23T22:05:36.902Z,97453.77
2019-02-23T22:08:25.628Z,97452.26
2019-02-23T22:11:14.202Z,97456.58
2019-02-23T22:14:03.434Z,97456.19
2019-02-23T22:16:51.611Z,97458.22
2019-02-23T22:19:41.276Z,97463.00
2019-02-23T22:22:30.261Z,97465.69
2019-02-23T22:25:18.941Z,97468.56
2019-02-23T22:28:07.729Z,97467.16
2019-02-23T22:30:56.449Z,97466.27
2019-02-23T22:33:44.859Z,97465.18
2019-02-23T22:36:33.782Z,97464.23
2019-02-23T22:39:23.119Z,97461.48
2019-02-23T22:42:11.643Z,97465.20
2019-02-23T22:44:59.773Z,97473.38
2019-02-23T22:47:48.757Z,97470.87
2019-02-23T22:50:37.653Z,97462.74
2019-02-23T22:53:26.725Z,97468.41
2019-02-23T22:56:15.244Z,97466.77
2019-02-23T22:59:04.163Z,97466.47
2019-02-23T23:01:52.118Z,97463.17
2019-02-23T23:04:40.819Z,97461.92
2019-02-23T23:07:29.732Z,97459.19
2019-02-23T23:10:19.029Z,97458.95
2019-02-23T23:13:07.790Z,97457.93
2019-02-23T23:15:56.688Z,97449.96
2019-02-23T23:18:44.987Z,97442.50
2019-02-23T23:21:33.858Z,97448.06
2019-02-23T23:24:21.965Z,97439.34
2019-02-23T23:27:10.290Z,97434.20
2019-02-23T23:29:58.937Z,97427.45
2019-02-23T23:32:47.473Z,97427.88
2019-02-23T23:35:35.821Z,97427.42
2019-02-23T23:38:24.889Z,97427.77
2019-02-23T23:41:13.948Z,97426.70
2019-02-23T23:44:02.886Z,97429.27
2019-02-23T23:46:51.698Z,97427.05
2019-02-23T23:49:42.197Z,97423.50
2019-02-23T23:52:31.345Z,97421.41
2019-02-23T23:55:20.143Z,97423.80
2019-02-23T23:58:08.551Z,97418.28
